Time;durP1;ratioP1;P1;durP2;ratioP2;P2;SDS_P1;SDS_P2;PMS_P1;PMS_P2;Temp;Humidity;BMP_temperature;BMP_pressure;BME280_temperature;BME280_humidity;BME280_pressure;Samples;Min_cycle;Max_cycle;Signal;HPM_P1;HPM_P2
2023/06/14 00:00:43;;;;;;;6.27;5.60;;;;;24.50;100338.00;;;;2056972;28;20458;-52
2023/06/14 00:01:45;;;;;;;6.55;5.90;;;;;24.50;100341.00;;;;2054794;28;20223;-54
2023/06/14 00:02:45;;;;;;;7.00;5.80;;;;;24.50;100340.00;;;;2063513;28;20218;-57
2023/06/14 00:03:47;;;;;;;6.23;5.70;;;;;24.50;100335.00;;;;2051068;28;20482;-54
2023/06/14 00:04:48;;;;;;;6.82;6.22;;;;;24.40;100339.00;;;;2067978;28;20737;-51
2023/06/14 00:05:48;;;;;;;6.17;5.50;;;;;24.40;100338.00;;;;2060909;28;20242;-52
2023/06/14 00:06:50;;;;;;;6.80;6.20;;;;;24.50;100338.00;;;;2060591;28;21269;-58
2023/06/14 00:07:53;;;;;;;7.00;6.37;;;;;24.40;100340.00;;;;2061240;28;20966;-58
2023/06/14 00:08:54;;;;;;;9.10;6.38;;;;;24.40;100335.00;;;;2048130;28;20513;-57
2023/06/14 00:09:54;;;;;;;6.27;5.67;;;;;24.50;100349.00;;;;2061976;28;20231;-54
2023/06/14 00:10:54;;;;;;;6.57;5.97;;;;;24.40;100336.00;;;;2058400;28;21368;-58
2023/06/14 00:11:55;;;;;;;6.30;5.70;;;;;24.40;100343.00;;;;2054277;28;21083;-55
2023/06/14 00:12:55;;;;;;;6.50;5.90;;;;;24.40;100348.00;;;;2061046;28;20285;-53
2023/06/14 00:13:56;;;;;;;6.67;6.17;;;;;24.40;100345.00;;;;2051536;28;20226;-55
2023/06/14 00:14:56;;;;;;;6.73;6.10;;;;;24.40;100341.00;;;;2061898;28;20230;-53
2023/06/14 00:15:56;;;;;;;6.37;5.80;;;;;24.40;100347.00;;;;2060933;28;20591;-57
2023/06/14 00:16:58;;;;;;;6.97;6.37;;;;;24.40;100347.00;;;;2061950;28;20226;-58
2023/06/14 00:18:01;;;;;;;6.10;5.60;;;;;24.40;100348.00;;;;2061066;28;20591;-54
2023/06/14 00:19:05;;;;;;;7.67;6.30;;;;;24.40;100353.00;;;;2048650;28;20465;-52
2023/06/14 00:20:06;;;;;;;9.85;6.00;;;;;24.40;100350.00;;;;2054378;28;20463;-57
2023/06/14 00:21:06;;;;;;;7.17;6.37;;;;;24.40;100343.00;;;;2060759;28;20207;-55
2023/06/14 00:22:07;;;;;;;7.00;6.40;;;;;24.40;100350.00;;;;2055187;28;20470;-55
2023/06/14 00:23:07;;;;;;;6.67;5.97;;;;;24.40;100350.00;;;;2055748;28;20218;-55
2023/06/14 00:24:07;;;;;;;6.60;6.00;;;;;24.40;100347.00;;;;2049975;28;20210;-56
2023/06/14 00:25:08;;;;;;;7.90;6.07;;;;;24.40;100356.00;;;;2060710;28;20203;-53
2023/06/14 00:26:08;;;;;;;6.63;6.00;;;;;24.40;100354.00;;;;2054011;28;20207;-52
2023/06/14 00:27:08;;;;;;;7.17;6.47;;;;;24.30;100352.00;;;;2058239;28;20238;-52
2023/06/14 00:28:09;;;;;;;7.50;5.67;;;;;24.40;100356.00;;;;2061122;28;20222;-52
2023/06/14 00:29:09;;;;;;;6.40;5.90;;;;;24.40;100359.00;;;;2053651;28;20259;-54
2023/06/14 00:30:10;;;;;;;6.40;5.80;;;;;24.40;100356.00;;;;2060359;28;20226;-55
2023/06/14 00:31:11;;;;;;;6.20;5.70;;;;;24.40;100359.00;;;;2062056;28;20211;-52
2023/06/14 00:32:11;;;;;;;6.83;6.23;;;;;24.40;100350.00;;;;2060354;28;20462;-51
2023/06/14 00:33:12;;;;;;;6.30;5.70;;;;;24.30;100353.00;;;;2052776;28;20458;-52
2023/06/14 00:34:12;;;;;;;6.63;6.13;;;;;24.40;100360.00;;;;2062127;28;20215;-54
2023/06/14 00:35:13;;;;;;;6.43;5.80;;;;;24.40;100364.00;;;;2062478;28;20215;-51
2023/06/14 00:36:13;;;;;;;7.23;6.63;;;;;24.30;100359.00;;;;2069031;28;20245;-56
2023/06/14 00:37:13;;;;;;;9.43;6.00;;;;;24.40;100357.00;;;;2062556;28;20214;-52
2023/06/14 00:38:14;;;;;;;6.57;5.97;;;;;24.30;100362.00;;;;2059205;28;20304;-52
2023/06/14 00:39:14;;;;;;;6.30;5.70;;;;;24.40;100362.00;;;;2072853;28;20222;-58
2023/06/14 00:40:14;;;;;;;6.50;5.90;;;;;24.30;100359.00;;;;2067522;28;20211;-56
2023/06/14 00:41:15;;;;;;;6.50;5.90;;;;;24.30;100365.00;;;;2069223;28;20252;-55
2023/06/14 00:42:25;;;;;;;6.47;5.93;;;;;24.40;100366.00;;;;2062965;28;20219;-54
2023/06/14 00:43:25;;;;;;;6.83;6.23;;;;;24.30;100363.00;;;;2058627;28;20219;-52
2023/06/14 00:44:26;;;;;;;6.50;6.00;;;;;24.30;100372.00;;;;2065507;28;20457;-52
2023/06/14 00:45:26;;;;;;;10.03;6.13;;;;;24.30;100364.00;;;;2059339;28;20227;-53
2023/06/14 00:46:26;;;;;;;6.23;5.63;;;;;24.30;100364.00;;;;2057073;28;20250;-52
2023/06/14 00:47:27;;;;;;;7.27;6.47;;;;;24.30;100369.00;;;;2059067;28;20230;-58
2023/06/14 00:48:27;;;;;;;6.70;6.10;;;;;24.30;100365.00;;;;2047909;28;20223;-54
2023/06/14 00:49:28;;;;;;;6.70;6.10;;;;;24.30;100363.00;;;;2058526;28;20211;-55
2023/06/14 00:50:29;;;;;;;7.07;6.37;;;;;24.30;100366.00;;;;2041917;28;20616;-52
2023/06/14 00:51:29;;;;;;;7.10;6.38;;;;;24.30;100368.00;;;;2050432;28;20215;-53
2023/06/14 00:52:32;;;;;;;5.87;5.37;;;;;24.30;100374.00;;;;2061914;28;20553;-51
2023/06/14 00:53:35;;;;;;;7.57;6.30;;;;;24.30;100373.00;;;;2051470;28;20318;-54
2023/06/14 00:54:35;;;;;;;7.07;6.30;;;;;24.30;100372.00;;;;2060685;28;20290;-53
2023/06/14 00:55:36;;;;;;;6.63;6.03;;;;;24.20;100373.00;;;;2059879;28;20207;-52
2023/06/14 00:56:36;;;;;;;6.63;5.80;;;;;24.30;100375.00;;;;2061908;28;20254;-52
2023/06/14 00:57:37;;;;;;;6.43;5.93;;;;;24.30;100373.00;;;;2061617;28;20386;-54
2023/06/14 00:58:37;;;;;;;6.60;5.73;;;;;24.30;100372.00;;;;2047087;28;20234;-55
2023/06/14 00:59:45;;;;;;;6.73;5.67;;;;;24.30;100376.00;;;;2057467;28;20560;-54
2023/06/14 01:00:45;;;;;;;6.15;5.45;;;;;24.30;100373.00;;;;2061936;28;20717;-57
2023/06/14 01:01:46;;;;;;;6.20;5.60;;;;;24.30;100383.00;;;;2067004;28;20286;-57
2023/06/14 01:02:46;;;;;;;7.13;5.23;;;;;24.30;100378.00;;;;2066706;28;21151;-55
2023/06/14 01:03:49;;;;;;;5.97;5.47;;;;;24.30;100376.00;;;;2055312;28;20264;-53
2023/06/14 01:04:49;;;;;;;6.47;5.93;;;;;24.30;100375.00;;;;2060553;28;20790;-54
2023/06/14 01:05:52;;;;;;;6.00;5.40;;;;;24.30;100373.00;;;;2061861;28;20503;-49
2023/06/14 01:07:13;;;;;;;6.25;5.75;;;;;24.30;100378.00;;;;2052642;28;20239;-53
2023/06/14 01:08:23;;;;;;;6.20;5.70;;;;;24.30;100380.00;;;;2045147;28;20290;-49
2023/06/14 01:09:30;;;;;;;6.00;5.50;;;;;24.30;100377.00;;;;2055138;28;20538;-54
2023/06/14 01:10:53;;;;;;;6.60;6.00;;;;;24.30;100374.00;;;;2060956;28;20655;-52
2023/06/14 01:12:50;;;;;;;5.55;5.05;;;;;24.30;100387.00;;;;2052824;28;20881;-53
2023/06/14 01:13:51;;;;;;;6.50;5.90;;;;;24.30;100380.00;;;;2033805;28;20228;-52
2023/06/14 01:14:51;;;;;;;5.77;5.27;;;;;24.30;100376.00;;;;2044626;28;20467;-52
2023/06/14 01:15:52;;;;;;;5.60;5.10;;;;;24.20;100380.00;;;;2043841;28;20323;-51
2023/06/14 01:16:53;;;;;;;6.13;5.37;;;;;24.30;100377.00;;;;2052013;28;20228;-51
2023/06/14 01:17:53;;;;;;;5.90;5.30;;;;;24.20;100380.00;;;;2051268;28;20222;-51
2023/06/14 01:18:56;;;;;;;6.03;5.40;;;;;24.20;100383.00;;;;2044083;28;20544;-51
2023/06/14 01:19:57;;;;;;;6.03;5.53;;;;;24.30;100376.00;;;;2060921;28;20241;-51
2023/06/14 01:20:58;;;;;;;5.53;5.03;;;;;24.20;100389.00;;;;2060512;28;20211;-51
2023/06/14 01:21:59;;;;;;;6.23;5.43;;;;;24.20;100380.00;;;;2060722;28;20600;-51
2023/06/14 01:23:00;;;;;;;5.38;4.88;;;;;24.30;100378.00;;;;2063238;28;20243;-51
2023/06/14 01:24:03;;;;;;;6.05;5.45;;;;;24.20;100384.00;;;;2053321;28;20217;-51
2023/06/14 01:25:04;;;;;;;7.32;5.22;;;;;24.20;100384.00;;;;2067019;28;20214;-51
2023/06/14 01:26:05;;;;;;;5.88;5.32;;;;;24.30;100386.00;;;;2053812;28;20239;-51
2023/06/14 01:27:06;;;;;;;7.03;5.67;;;;;24.20;100385.00;;;;2063815;28;20207;-51
2023/06/14 01:28:14;;;;;;;6.13;5.23;;;;;24.20;100385.00;;;;2060989;28;20268;-51
2023/06/14 01:29:17;;;;;;;6.35;5.75;;;;;24.20;100385.00;;;;2055526;28;20493;-51
2023/06/14 01:30:17;;;;;;;5.75;5.00;;;;;24.20;100368.00;;;;2064131;28;20711;-51
2023/06/14 01:31:21;;;;;;;7.47;5.47;;;;;24.20;100385.00;;;;2066910;28;20214;-51
2023/06/14 01:32:25;;;;;;;7.07;5.63;;;;;24.20;100383.00;;;;2053732;28;20219;-51
2023/06/14 01:33:26;;;;;;;6.10;5.50;;;;;24.20;100377.00;;;;2042985;28;20266;-52
2023/06/14 01:34:26;;;;;;;6.22;5.63;;;;;24.20;100379.00;;;;2052007;28;20282;-51
2023/06/14 01:35:26;;;;;;;6.07;5.57;;;;;24.20;100388.00;;;;2061406;28;20215;-51
2023/06/14 01:36:27;;;;;;;6.20;5.60;;;;;24.20;100385.00;;;;2060372;28;20234;-51
2023/06/14 01:37:27;;;;;;;5.80;5.10;;;;;24.20;100377.00;;;;2051859;28;20219;-51
2023/06/14 01:38:28;;;;;;;5.40;4.90;;;;;24.20;100378.00;;;;2053715;28;20212;-51
2023/06/14 01:39:28;;;;;;;5.77;5.17;;;;;24.20;100378.00;;;;2056597;28;20239;-51
2023/06/14 01:40:28;;;;;;;5.80;5.30;;;;;24.20;100364.00;;;;2051191;28;20246;-51
2023/06/14 01:41:28;;;;;;;5.60;5.10;;;;;24.20;100378.00;;;;2045142;28;20330;-51
2023/06/14 01:42:29;;;;;;;6.23;5.70;;;;;24.20;100381.00;;;;2043936;28;20252;-51
2023/06/14 01:43:30;;;;;;;5.80;5.30;;;;;24.20;100381.00;;;;2043031;28;20235;-57
2023/06/14 01:44:30;;;;;;;6.30;5.60;;;;;24.20;100381.00;;;;2063473;28;20431;-51
2023/06/14 01:45:30;;;;;;;5.70;5.20;;;;;24.20;100380.00;;;;2056341;28;20225;-52
2023/06/14 01:46:31;;;;;;;5.70;5.20;;;;;24.20;100376.00;;;;2051673;28;20212;-51
2023/06/14 01:47:31;;;;;;;6.63;4.77;;;;;24.20;100383.00;;;;2063873;28;20714;-51
2023/06/14 01:48:32;;;;;;;6.47;5.57;;;;;24.20;100380.00;;;;2054938;28;20801;-51
2023/06/14 01:49:35;;;;;;;5.70;5.20;;;;;24.20;100384.00;;;;2061983;28;20671;-52
2023/06/14 01:50:35;;;;;;;5.68;5.18;;;;;24.20;100379.00;;;;2063902;28;20598;-52
2023/06/14 01:51:36;;;;;;;5.97;5.40;;;;;24.20;100378.00;;;;2060825;28;20221;-51
2023/06/14 01:52:39;;;;;;;6.63;5.20;;;;;24.20;100377.00;;;;2061245;28;20211;-51
2023/06/14 01:53:40;;;;;;;6.03;5.53;;;;;24.20;100382.00;;;;2051088;28;20230;-51
2023/06/14 01:54:41;;;;;;;5.57;5.07;;;;;24.20;100382.00;;;;2060900;28;20540;-51
2023/06/14 01:55:43;;;;;;;6.15;5.30;;;;;24.20;100378.00;;;;2060600;28;20218;-51
2023/06/14 01:56:43;;;;;;;6.68;5.18;;;;;24.20;100388.00;;;;2056169;28;20787;-52
2023/06/14 01:57:43;;;;;;;6.33;4.70;;;;;24.20;100384.00;;;;2058552;28;20214;-54
2023/06/14 01:58:44;;;;;;;6.03;5.53;;;;;24.20;100381.00;;;;2045919;28;20255;-54
2023/06/14 01:59:48;;;;;;;6.10;5.50;;;;;24.20;100375.00;;;;2058822;28;20211;-54
2023/06/14 02:00:48;;;;;;;6.10;5.55;;;;;24.20;100374.00;;;;2059031;28;20552;-54
2023/06/14 02:01:48;;;;;;;5.70;5.10;;;;;24.20;100381.00;;;;2060701;28;20297;-54
2023/06/14 02:02:49;;;;;;;6.90;5.33;;;;;24.10;100373.00;;;;2058024;28;21825;-51
2023/06/14 02:03:51;;;;;;;6.90;5.38;;;;;24.20;100377.00;;;;2052020;28;20230;-54
2023/06/14 02:04:52;;;;;;;7.10;5.05;;;;;24.20;100377.00;;;;2053519;28;20215;-49
2023/06/14 02:05:52;;;;;;;5.93;5.20;;;;;24.20;100383.00;;;;2064015;28;20220;-50
2023/06/14 02:06:52;;;;;;;5.73;5.17;;;;;24.20;100379.00;;;;2059362;28;21163;-54
2023/06/14 02:07:53;;;;;;;6.70;5.20;;;;;24.20;100375.00;;;;2061449;28;20748;-54
2023/06/14 02:08:53;;;;;;;6.30;5.13;;;;;24.20;100372.00;;;;2054484;28;20227;-53
2023/06/14 02:09:54;;;;;;;6.93;5.20;;;;;24.20;100376.00;;;;2067759;28;20222;-51
2023/06/14 02:10:54;;;;;;;5.80;4.70;;;;;24.20;100373.00;;;;2065367;28;20245;-51
2023/06/14 02:11:54;;;;;;;5.60;5.10;;;;;24.20;100381.00;;;;2066634;28;20218;-54
2023/06/14 02:12:55;;;;;;;7.03;5.07;;;;;24.20;100373.00;;;;2062778;28;20270;-54
2023/06/14 02:13:55;;;;;;;6.23;5.13;;;;;24.20;100381.00;;;;2051630;28;20301;-54
2023/06/14 02:14:56;;;;;;;5.53;5.03;;;;;24.10;100382.00;;;;2062064;28;20732;-51
2023/06/14 02:15:57;;;;;;;5.77;4.73;;;;;24.10;100382.00;;;;2062568;28;21473;-50
2023/06/14 02:16:57;;;;;;;5.43;4.93;;;;;24.10;100382.00;;;;2068438;28;20218;-53
2023/06/14 02:17:57;;;;;;;6.10;5.40;;;;;24.20;100374.00;;;;2067599;28;20252;-54
2023/06/14 02:18:58;;;;;;;5.40;4.90;;;;;24.10;100376.00;;;;2054796;28;20222;-54
2023/06/14 02:19:58;;;;;;;6.50;5.80;;;;;24.10;100381.00;;;;2068403;28;20217;-48
2023/06/14 02:20:58;;;;;;;5.70;5.20;;;;;24.10;100384.00;;;;2061740;28;20218;-51
2023/06/14 02:21:59;;;;;;;5.83;5.20;;;;;24.10;100378.00;;;;2066612;28;20222;-52
2023/06/14 02:22:59;;;;;;;5.80;4.60;;;;;24.10;100390.00;;;;2064292;28;20229;-51
2023/06/14 02:24:01;;;;;;;6.43;5.40;;;;;24.10;100383.00;;;;2052212;28;20247;-56
2023/06/14 02:25:02;;;;;;;5.75;5.25;;;;;24.10;100380.00;;;;2053901;28;20207;-51
2023/06/14 02:26:02;;;;;;;7.07;5.33;;;;;24.10;100382.00;;;;2060666;28;20218;-51
2023/06/14 02:27:04;;;;;;;5.50;5.00;;;;;24.10;100384.00;;;;2055953;28;20215;-51
2023/06/14 02:28:04;;;;;;;5.20;4.70;;;;;24.10;100377.00;;;;2058842;28;20285;-52
2023/06/14 02:29:05;;;;;;;6.57;5.00;;;;;24.10;100377.00;;;;2051576;28;20236;-58
2023/06/14 02:30:06;;;;;;;5.27;4.77;;;;;24.10;100386.00;;;;2055589;28;21056;-52
2023/06/14 02:31:06;;;;;;;5.83;5.30;;;;;24.10;100324.00;;;;2067926;28;20994;-51
2023/06/14 02:32:07;;;;;;;5.80;5.07;;;;;24.10;100381.00;;;;2061936;28;20219;-52
2023/06/14 02:33:08;;;;;;;5.57;5.07;;;;;24.10;100374.00;;;;2059746;28;20222;-56
2023/06/14 02:34:09;;;;;;;5.43;4.97;;;;;24.10;100381.00;;;;2049960;28;20218;-52
2023/06/14 02:35:10;;;;;;;4.90;4.50;;;;;24.10;100378.00;;;;2059123;28;20564;-51
2023/06/14 02:36:10;;;;;;;4.83;4.37;;;;;24.10;100375.00;;;;2053304;28;20467;-51
2023/06/14 02:37:12;;;;;;;6.00;5.37;;;;;24.10;100387.00;;;;2058771;28;20218;-51
2023/06/14 02:38:13;;;;;;;5.78;4.20;;;;;24.10;100386.00;;;;2051060;28;20215;-51
2023/06/14 02:39:13;;;;;;;5.27;4.77;;;;;24.10;100381.00;;;;2059942;28;20214;-57
2023/06/14 02:40:14;;;;;;;5.50;5.00;;;;;24.10;100384.00;;;;2060709;28;20277;-53
2023/06/14 02:41:14;;;;;;;6.40;5.03;;;;;24.10;100387.00;;;;2059603;28;20206;-54
2023/06/14 02:42:14;;;;;;;5.30;4.90;;;;;24.10;100395.00;;;;2059807;28;20207;-52
2023/06/14 02:43:17;;;;;;;5.40;4.90;;;;;24.10;100381.00;;;;2051275;28;20455;-50
2023/06/14 02:44:18;;;;;;;7.85;4.72;;;;;24.10;100391.00;;;;2059665;28;20833;-57
2023/06/14 02:45:18;;;;;;;6.07;5.10;;;;;24.10;100385.00;;;;2060144;28;20298;-52
2023/06/14 02:46:18;;;;;;;6.33;5.17;;;;;24.00;100383.00;;;;2059971;28;20265;-52
2023/06/14 02:47:19;;;;;;;5.63;5.03;;;;;24.10;100385.00;;;;2060383;28;20293;-52
2023/06/14 02:48:19;;;;;;;6.07;5.57;;;;;24.10;100386.00;;;;2051130;28;20278;-52
2023/06/14 02:49:19;;;;;;;5.30;4.70;;;;;23.90;100392.00;;;;2057673;28;22191;-52
2023/06/14 02:50:21;;;;;;;8.43;4.90;;;;;24.10;100391.00;;;;2058322;28;20222;-52
2023/06/14 02:51:21;;;;;;;4.97;4.30;;;;;24.10;100389.00;;;;2058447;28;20223;-52
2023/06/14 02:52:22;;;;;;;5.63;5.13;;;;;24.10;100399.00;;;;2060784;28;20225;-51
2023/06/14 02:53:22;;;;;;;5.73;5.10;;;;;23.90;100388.00;;;;2050376;28;20219;-51
2023/06/14 02:54:22;;;;;;;6.70;4.83;;;;;24.10;100389.00;;;;2059729;28;20226;-52
2023/06/14 02:55:23;;;;;;;5.40;4.83;;;;;24.00;100388.00;;;;2059737;28;20379;-51
2023/06/14 02:56:23;;;;;;;5.70;5.20;;;;;24.10;100395.00;;;;2058578;28;20215;-52
2023/06/14 02:57:23;;;;;;;6.33;4.90;;;;;24.00;100396.00;;;;2060332;28;20219;-52
2023/06/14 02:58:24;;;;;;;5.63;5.13;;;;;24.00;100388.00;;;;2050372;28;20214;-51
2023/06/14 02:59:26;;;;;;;5.22;4.80;;;;;24.00;100395.00;;;;2057918;28;20763;-52
2023/06/14 03:00:26;;;;;;;6.80;5.03;;;;;24.10;100402.00;;;;2053385;28;20218;-52
2023/06/14 03:01:34;;;;;;;5.37;4.87;;;;;24.00;100394.00;;;;2062142;28;20216;-52
2023/06/14 03:02:34;;;;;;;5.93;5.38;;;;;24.00;100405.00;;;;2066227;28;20222;-52
2023/06/14 03:03:35;;;;;;;6.40;5.00;;;;;24.00;100402.00;;;;2054727;28;20255;-52
2023/06/14 03:04:37;;;;;;;5.53;5.03;;;;;24.10;100403.00;;;;2055762;28;20216;-52
2023/06/14 03:05:40;;;;;;;5.30;4.80;;;;;24.10;100406.00;;;;2056309;28;20215;-52
2023/06/14 03:06:43;;;;;;;5.78;5.05;;;;;24.00;100403.00;;;;2058413;28;20214;-52
2023/06/14 03:07:45;;;;;;;5.88;4.60;;;;;24.00;100407.00;;;;2058953;28;20218;-52
2023/06/14 03:08:45;;;;;;;5.70;5.20;;;;;24.00;100397.00;;;;2047042;28;20210;-52
2023/06/14 03:09:46;;;;;;;5.30;4.67;;;;;24.10;100402.00;;;;2055133;28;20451;-52
2023/06/14 03:10:47;;;;;;;5.70;4.78;;;;;24.00;100407.00;;;;2053885;28;20286;-52
2023/06/14 03:11:47;;;;;;;5.33;4.77;;;;;24.00;100406.00;;;;2064677;28;20643;-52
2023/06/14 03:12:47;;;;;;;5.30;4.53;;;;;24.10;100409.00;;;;2063072;28;20219;-52
2023/06/14 03:13:48;;;;;;;4.90;4.50;;;;;24.10;100409.00;;;;2049961;28;20222;-52
2023/06/14 03:14:50;;;;;;;5.30;4.80;;;;;24.00;100409.00;;;;2060801;28;20222;-52
2023/06/14 03:15:51;;;;;;;5.80;4.45;;;;;24.00;100418.00;;;;2056968;28;20218;-52
2023/06/14 03:16:56;;;;;;;5.47;4.88;;;;;24.00;100408.00;;;;2060388;28;20611;-52
2023/06/14 03:17:56;;;;;;;7.78;5.32;;;;;24.00;100414.00;;;;2053747;28;20227;-52
2023/06/14 03:18:57;;;;;;;4.93;4.40;;;;;24.00;100416.00;;;;2051203;28;21289;-52
2023/06/14 03:19:57;;;;;;;5.30;4.80;;;;;24.00;100410.00;;;;2060470;28;20587;-52
2023/06/14 03:21:00;;;;;;;6.20;5.10;;;;;24.00;100414.00;;;;2059119;28;20230;-52
2023/06/14 03:22:02;;;;;;;5.57;5.07;;;;;24.00;100420.00;;;;2059494;28;20218;-52
2023/06/14 03:23:03;;;;;;;5.00;4.60;;;;;24.00;100414.00;;;;2059237;28;20242;-53
2023/06/14 03:24:03;;;;;;;6.57;5.00;;;;;24.00;100422.00;;;;2050738;28;20675;-51
2023/06/14 03:25:04;;;;;;;5.27;4.77;;;;;24.00;100420.00;;;;2053767;28;21383;-52
2023/06/14 03:26:05;;;;;;;5.73;5.23;;;;;24.00;100412.00;;;;2060254;28;20273;-52
2023/06/14 03:27:05;;;;;;;5.23;4.67;;;;;24.00;100416.00;;;;2060473;28;20703;-52
2023/06/14 03:28:05;;;;;;;6.67;4.87;;;;;24.00;100455.00;;;;2059392;28;20302;-52
2023/06/14 03:29:06;;;;;;;4.67;4.27;;;;;23.90;100427.00;;;;2048666;28;20696;-52
2023/06/14 03:30:07;;;;;;;6.93;5.20;;;;;23.90;100428.00;;;;2059243;28;20215;-52
2023/06/14 03:31:08;;;;;;;5.25;4.85;;;;;24.00;100433.00;;;;2060368;28;20647;-52
2023/06/14 03:32:09;;;;;;;5.60;4.60;;;;;24.00;100424.00;;;;2058957;28;20222;-52
2023/06/14 03:33:09;;;;;;;5.70;4.83;;;;;24.00;100430.00;;;;2059715;28;20458;-52
2023/06/14 03:34:09;;;;;;;4.90;4.40;;;;;24.00;100422.00;;;;2058286;28;20226;-52
2023/06/14 03:35:16;;;;;;;6.40;4.90;;;;;24.10;100431.00;;;;2066919;28;20229;-52
2023/06/14 03:36:17;;;;;;;6.43;4.70;;;;;24.00;100429.00;;;;2059965;28;20223;-52
2023/06/14 03:37:18;;;;;;;6.63;4.80;;;;;24.00;100433.00;;;;2058986;28;20249;-52
2023/06/14 03:38:18;;;;;;;5.20;4.70;;;;;24.00;100433.00;;;;2050612;28;20442;-52
2023/06/14 03:39:19;;;;;;;5.57;5.07;;;;;24.00;100428.00;;;;2057578;28;20277;-52
2023/06/14 03:40:20;;;;;;;10.00;5.10;;;;;24.00;100429.00;;;;2055688;28;20241;-52
2023/06/14 03:41:20;;;;;;;6.97;5.05;;;;;24.00;100430.00;;;;2053631;28;20239;-52
2023/06/14 03:42:21;;;;;;;5.13;4.63;;;;;24.00;100436.00;;;;2060257;28;20726;-52
2023/06/14 03:43:21;;;;;;;5.30;4.80;;;;;24.00;100433.00;;;;2050036;28;20649;-52
2023/06/14 03:44:21;;;;;;;5.10;4.70;;;;;24.00;100430.00;;;;2059848;28;20264;-52
2023/06/14 03:45:22;;;;;;;5.87;4.80;;;;;23.90;100434.00;;;;2062695;28;20382;-52
2023/06/14 03:46:22;;;;;;;6.23;5.10;;;;;24.00;100437.00;;;;2064586;28;20227;-52
2023/06/14 03:47:22;;;;;;;7.30;5.50;;;;;23.90;100440.00;;;;2060723;28;20234;-52
2023/06/14 03:48:23;;;;;;;5.10;4.70;;;;;24.00;100380.00;;;;2050122;28;20273;-52
2023/06/14 03:49:23;;;;;;;5.10;4.70;;;;;24.00;100444.00;;;;2058517;28;20580;-52
2023/06/14 03:50:24;;;;;;;5.20;4.70;;;;;24.00;100440.00;;;;2060732;28;20563;-52
2023/06/14 03:51:25;;;;;;;6.83;4.70;;;;;24.00;100441.00;;;;2058744;28;20225;-52
2023/06/14 03:52:26;;;;;;;4.88;4.47;;;;;24.00;100440.00;;;;2060696;28;20214;-51
2023/06/14 03:53:28;;;;;;;9.27;5.00;;;;;24.00;100442.00;;;;2049403;28;20222;-52
2023/06/14 03:54:28;;;;;;;5.80;4.20;;;;;24.00;100452.00;;;;2059000;28;20219;-52
2023/06/14 03:55:31;;;;;;;8.67;4.63;;;;;24.00;100450.00;;;;2060046;28;20211;-52
2023/06/14 03:56:31;;;;;;;5.72;4.70;;;;;24.00;100450.00;;;;2060550;28;20223;-52
2023/06/14 03:57:31;;;;;;;6.23;4.67;;;;;24.00;100451.00;;;;2060604;28;20680;-53
2023/06/14 03:58:32;;;;;;;4.87;4.47;;;;;24.00;100449.00;;;;2049917;28;20250;-52
2023/06/14 03:59:32;;;;;;;4.40;4.00;;;;;24.00;100454.00;;;;2056334;28;20242;-54
2023/06/14 04:00:32;;;;;;;4.80;4.30;;;;;24.00;100457.00;;;;2055949;28;20265;-53
2023/06/14 04:01:33;;;;;;;5.40;4.90;;;;;24.00;100455.00;;;;2063397;28;20210;-53
2023/06/14 04:02:33;;;;;;;4.60;4.20;;;;;24.00;100456.00;;;;2062512;28;20223;-53
2023/06/14 04:03:34;;;;;;;5.43;4.93;;;;;24.00;100465.00;;;;2047493;28;20235;-52
2023/06/14 04:04:35;;;;;;;6.40;4.30;;;;;24.00;100463.00;;;;2054917;28;20222;-52
2023/06/14 04:05:35;;;;;;;5.05;4.55;;;;;24.00;100466.00;;;;2055715;28;20684;-53
2023/06/14 04:06:36;;;;;;;5.70;4.70;;;;;24.00;100467.00;;;;2059785;28;20235;-52
2023/06/14 04:07:44;;;;;;;5.10;4.43;;;;;24.00;100460.00;;;;2060587;28;20203;-53
2023/06/14 04:08:45;;;;;;;5.50;4.15;;;;;23.90;100468.00;;;;2050354;28;20306;-52
2023/06/14 04:09:45;;;;;;;5.40;4.63;;;;;23.90;100472.00;;;;2055389;28;20238;-52
2023/06/14 04:10:46;;;;;;;5.27;4.37;;;;;23.90;100462.00;;;;2057307;28;20273;-53
2023/06/14 04:11:46;;;;;;;4.67;4.17;;;;;23.90;100464.00;;;;2053773;28;20228;-52
2023/06/14 04:12:46;;;;;;;5.13;4.63;;;;;23.90;100470.00;;;;2058016;28;20222;-53
2023/06/14 04:13:47;;;;;;;5.63;5.13;;;;;23.90;100471.00;;;;2050733;28;20318;-52
2023/06/14 04:14:47;;;;;;;5.00;4.07;;;;;23.90;100465.00;;;;2061625;28;20219;-52
2023/06/14 04:15:48;;;;;;;5.17;4.20;;;;;23.90;100471.00;;;;2061400;28;20246;-52
2023/06/14 04:16:48;;;;;;;6.10;5.27;;;;;24.00;100473.00;;;;2067703;28;20300;-53
2023/06/14 04:17:48;;;;;;;4.93;4.07;;;;;24.00;100476.00;;;;2062736;28;20238;-53
2023/06/14 04:18:51;;;;;;;4.93;4.53;;;;;24.00;100472.00;;;;2055392;28;20795;-53
2023/06/14 04:19:51;;;;;;;4.70;4.30;;;;;24.00;100481.00;;;;2056066;28;20220;-53
2023/06/14 04:20:53;;;;;;;4.37;3.97;;;;;24.00;100477.00;;;;2059406;28;20271;-52
2023/06/14 04:21:53;;;;;;;7.30;4.32;;;;;24.00;100481.00;;;;2061165;28;20226;-58
2023/06/14 04:22:57;;;;;;;5.50;4.80;;;;;24.00;100476.00;;;;2061041;28;20231;-57
2023/06/14 04:23:57;;;;;;;5.13;4.70;;;;;24.00;100477.00;;;;2052623;28;21170;-54
2023/06/14 04:24:57;;;;;;;5.37;4.87;;;;;23.90;100478.00;;;;2061460;28;20280;-58
2023/06/14 04:26:02;;;;;;;5.90;4.33;;;;;23.90;100476.00;;;;2069115;28;20226;-58
2023/06/14 04:27:02;;;;;;;4.32;3.88;;;;;23.90;100484.00;;;;2062073;28;20219;-52
2023/06/14 04:28:03;;;;;;;4.67;4.27;;;;;23.90;100478.00;;;;2059776;28;20912;-54
2023/06/14 04:29:03;;;;;;;4.83;4.10;;;;;23.90;100482.00;;;;2051851;28;20229;-51
2023/06/14 04:30:04;;;;;;;5.93;3.73;;;;;23.90;100486.00;;;;2068666;28;20222;-58
2023/06/14 04:31:05;;;;;;;5.80;4.13;;;;;23.90;100477.00;;;;2061006;28;20290;-53
2023/06/14 04:32:09;;;;;;;7.33;4.40;;;;;23.90;100484.00;;;;2056544;28;20454;-53
2023/06/14 04:33:10;;;;;;;4.90;4.40;;;;;23.90;100483.00;;;;2053676;28;20243;-51
2023/06/14 04:34:16;;;;;;;6.90;4.03;;;;;23.90;100484.00;;;;2049992;28;20218;-57
2023/06/14 04:35:16;;;;;;;4.65;4.25;;;;;23.90;100482.00;;;;2063299;28;20211;-57
2023/06/14 04:36:17;;;;;;;6.70;3.87;;;;;23.90;100486.00;;;;2068528;28;20206;-52
2023/06/14 04:37:18;;;;;;;6.37;4.27;;;;;24.00;100482.00;;;;2060096;28;20211;-53
2023/06/14 04:38:23;;;;;;;5.88;4.13;;;;;24.00;100483.00;;;;2049233;28;20215;-53
2023/06/14 04:39:25;;;;;;;5.60;4.00;;;;;24.00;100490.00;;;;2055629;28;20574;-53
2023/06/14 04:40:25;;;;;;;4.63;4.15;;;;;23.90;100486.00;;;;2060293;28;20226;-52
2023/06/14 04:41:30;;;;;;;4.30;3.90;;;;;23.90;100491.00;;;;2060839;28;20219;-53
2023/06/14 04:42:31;;;;;;;5.50;4.40;;;;;23.90;100497.00;;;;2059190;28;20216;-52
2023/06/14 04:43:37;;;;;;;4.53;4.07;;;;;24.00;100492.00;;;;2052191;28;20249;-52
2023/06/14 04:44:39;;;;;;;5.97;4.38;;;;;23.90;100496.00;;;;2058355;28;20778;-53
2023/06/14 04:45:40;;;;;;;5.95;4.10;;;;;23.90;100495.00;;;;2066455;28;20256;-52
2023/06/14 04:46:47;;;;;;;4.78;3.85;;;;;23.90;100500.00;;;;2063362;28;20865;-52
2023/06/14 04:47:47;;;;;;;4.82;3.80;;;;;23.90;100495.00;;;;2061966;28;20231;-52
2023/06/14 04:48:50;;;;;;;4.97;4.23;;;;;24.00;100501.00;;;;2054397;28;20258;-52
2023/06/14 04:49:53;;;;;;;5.15;4.35;;;;;24.00;100498.00;;;;2068595;28;20687;-52
2023/06/14 04:50:53;;;;;;;4.40;4.00;;;;;23.90;100507.00;;;;2063682;28;20211;-53
2023/06/14 04:52:01;;;;;;;4.23;3.83;;;;;24.00;100498.00;;;;2054777;28;20208;-52
2023/06/14 04:53:01;;;;;;;4.05;3.75;;;;;24.00;100505.00;;;;2061061;28;20218;-52
2023/06/14 04:54:02;;;;;;;3.90;3.57;;;;;24.00;100499.00;;;;2051767;28;20214;-52
2023/06/14 04:55:03;;;;;;;5.88;4.05;;;;;24.00;100501.00;;;;2074290;28;20229;-53
2023/06/14 04:56:04;;;;;;;5.23;3.60;;;;;24.00;100505.00;;;;2062948;28;20765;-53
2023/06/14 04:57:05;;;;;;;5.47;3.87;;;;;24.00;100508.00;;;;2061655;28;20223;-53
2023/06/14 04:58:05;;;;;;;4.72;4.20;;;;;24.00;100505.00;;;;2058532;28;20788;-52
2023/06/14 04:59:06;;;;;;;4.27;3.87;;;;;24.10;100508.00;;;;2052084;28;20215;-52
2023/06/14 05:00:07;;;;;;;4.03;3.70;;;;;24.10;100502.00;;;;2061560;28;20596;-53
2023/06/14 05:01:09;;;;;;;3.77;3.47;;;;;24.00;100509.00;;;;2060546;28;20576;-53
2023/06/14 05:02:11;;;;;;;4.32;3.92;;;;;24.00;100510.00;;;;2053164;28;20454;-53
2023/06/14 05:03:12;;;;;;;5.68;3.90;;;;;24.00;100515.00;;;;2057373;28;20662;-54
2023/06/14 05:04:14;;;;;;;4.20;3.50;;;;;24.10;100512.00;;;;2059851;28;20219;-53